Time;durP1;ratioP1;P1;durP2;ratioP2;P2;SDS_P1;SDS_P2;PMS_P1;PMS_P2;Temp;Humidity;BMP_temperature;BMP_pressure;BME280_temperature;BME280_humidity;BME280_pressure;Samples;Min_cycle;Max_cycle;Signal;HPM_P1;HPM_P2
2022/04/29 00:00:44;;;;;;;8.25;1.42;;;;;;;;;;5107832;28;20032;-72
2022/04/29 00:03:11;;;;;;;3.55;1.25;;;;;;;;;;5107674;28;20020;-70
2022/04/29 00:05:40;;;;;;;6.63;1.70;;;;;;;;;;5107413;28;20577;-71
2022/04/29 00:08:08;;;;;;;3.72;1.35;;;;;;;;;;5112095;28;20031;-70
2022/04/29 00:10:35;;;;;;;3.13;1.60;;;;;;;;;;5112216;28;20098;-70
2022/04/29 00:13:02;;;;;;;3.78;1.58;;;;;;;;;;5112531;28;20089;-70
2022/04/29 00:15:30;;;;;;;6.53;1.42;;;;;;;;;;5112077;28;20410;-70
2022/04/29 00:17:57;;;;;;;4.05;1.60;;;;;;;;;;5111429;28;20103;-71
2022/04/29 00:20:23;;;;;;;4.38;1.58;;;;;;;;;;5107622;28;20069;-69
2022/04/29 00:22:50;;;;;;;4.13;1.50;;;;;;;;;;5107466;28;20486;-70
2022/04/29 00:25:17;;;;;;;4.22;1.50;;;;;;;;;;5107355;28;20020;-69
2022/04/29 00:27:44;;;;;;;5.57;1.67;;;;;;;;;;5107378;28;20032;-72
2022/04/29 00:30:12;;;;;;;4.85;1.67;;;;;;;;;;5110302;28;20038;-75
2022/04/29 00:32:40;;;;;;;5.10;1.42;;;;;;;;;;5112253;28;20459;-70
2022/04/29 00:35:11;;;;;;;4.05;1.70;;;;;;;;;;5112477;28;20058;-70
2022/04/29 00:37:47;;;;;;;4.68;1.60;;;;;;;;;;5112108;28;20379;-70
2022/04/29 00:40:15;;;;;;;8.17;1.60;;;;;;;;;;5112084;28;20015;-70
2022/04/29 00:42:43;;;;;;;4.93;1.60;;;;;;;;;;5107790;28;20130;-69
2022/04/29 00:45:10;;;;;;;8.20;2.28;;;;;;;;;;5107198;28;20024;-69
2022/04/29 00:47:37;;;;;;;6.33;1.87;;;;;;;;;;5106980;28;20028;-71
2022/04/29 00:50:04;;;;;;;9.20;2.67;;;;;;;;;;5107007;28;20032;-69
2022/04/29 00:52:32;;;;;;;4.77;2.17;;;;;;;;;;5109897;28;20031;-69
2022/04/29 00:55:02;;;;;;;6.90;2.10;;;;;;;;;;5111556;28;20035;-70
2022/04/29 00:57:37;;;;;;;5.00;2.03;;;;;;;;;;5111981;28;21685;-71
2022/04/29 01:00:03;;;;;;;;;;;;;;;;;;5112310;28;20016;-70
2022/04/29 01:02:30;;;;;;;10.33;2.00;;;;;;;;;;5112165;28;19908;-71
2022/04/29 01:05:06;;;;;;;7.90;1.90;;;;;;;;;;5108079;28;20523;-70
2022/04/29 01:07:34;;;;;;;4.90;2.03;;;;;;;;;;5106789;28;20027;-68
2022/04/29 01:10:01;;;;;;;7.07;2.00;;;;;;;;;;5107016;28;20055;-70
2022/04/29 01:12:28;;;;;;;7.47;2.00;;;;;;;;;;5106838;28;20378;-70
2022/04/29 01:14:59;;;;;;;4.53;1.70;;;;;;;;;;5109665;28;20024;-70
2022/04/29 01:17:26;;;;;;;5.23;1.93;;;;;;;;;;5111817;28;20024;-70
2022/04/29 01:19:53;;;;;;;4.70;1.93;;;;;;;;;;5111346;28;20526;-70
2022/04/29 01:22:20;;;;;;;7.20;2.07;;;;;;;;;;5111689;28;20114;-70
2022/04/29 01:24:50;;;;;;;4.63;1.90;;;;;;;;;;5111631;28;20027;-70
2022/04/29 01:27:17;;;;;;;5.37;2.17;;;;;;;;;;5108775;28;20336;-70
2022/04/29 01:29:45;;;;;;;11.70;2.30;;;;;;;;;;5110352;28;20098;-70
2022/04/29 01:32:11;;;;;;;4.17;2.10;;;;;;;;;;5110177;28;20061;-70
2022/04/29 01:34:38;;;;;;;6.67;2.20;;;;;;;;;;5110555;28;20803;-70
2022/04/29 01:37:06;;;;;;;5.07;2.10;;;;;;;;;;5112495;28;20019;-70
2022/04/29 01:39:33;;;;;;;9.93;2.77;;;;;;;;;;5115250;28;20036;-70
2022/04/29 01:42:00;;;;;;;16.70;3.07;;;;;;;;;;5114795;28;20073;-69
2022/04/29 01:44:26;;;;;;;7.43;2.40;;;;;;;;;;5114943;28;20059;-70
2022/04/29 01:46:53;;;;;;;4.47;1.90;;;;;;;;;;5114859;28;20054;-70
2022/04/29 01:49:20;;;;;;;6.63;1.90;;;;;;;;;;5113326;28;20032;-70
2022/04/29 01:51:47;;;;;;;3.93;1.77;;;;;;;;;;5109819;28;20024;-70
2022/04/29 01:54:13;;;;;;;5.20;2.30;;;;;;;;;;5109762;28;20050;-70
2022/04/29 01:56:40;;;;;;;5.70;2.20;;;;;;;;;;5110270;28;20049;-70
2022/04/29 01:59:07;;;;;;;7.43;2.00;;;;;;;;;;5110822;28;20023;-70
2022/04/29 02:01:34;;;;;;;7.37;2.23;;;;;;;;;;5114430;28;20048;-70
2022/04/29 02:04:01;;;;;;;5.77;2.03;;;;;;;;;;5114583;28;20048;-70
2022/04/29 02:06:28;;;;;;;7.60;2.30;;;;;;;;;;5114596;28;20015;-70
2022/04/29 02:08:55;;;;;;;6.30;1.80;;;;;;;;;;5114580;28;20028;-70
2022/04/29 02:11:22;;;;;;;4.43;2.00;;;;;;;;;;5113960;28;20023;-68
2022/04/29 02:13:49;;;;;;;3.90;1.50;;;;;;;;;;5109293;28;20125;-69
2022/04/29 02:16:16;;;;;;;3.40;1.87;;;;;;;;;;5108963;28;20020;-71
2022/04/29 02:18:43;;;;;;;3.73;1.77;;;;;;;;;;5109684;28;20031;-72
2022/04/29 02:21:09;;;;;;;5.50;1.90;;;;;;;;;;5109401;28;20042;-70
2022/04/29 02:23:36;;;;;;;4.90;1.67;;;;;;;;;;5112589;28;20144;-71
2022/04/29 02:26:03;;;;;;;4.97;1.90;;;;;;;;;;5113173;28;20035;-68
2022/04/29 02:28:31;;;;;;;4.23;2.00;;;;;;;;;;5113067;28;20039;-68
2022/04/29 02:30:58;;;;;;;3.50;1.63;;;;;;;;;;5113590;28;20050;-71
2022/04/29 02:33:28;;;;;;;3.30;1.97;;;;;;;;;;5114430;28;20024;-66
2022/04/29 02:35:56;;;;;;;4.20;1.97;;;;;;;;;;5109182;28;20434;-68
2022/04/29 02:38:23;;;;;;;4.17;1.80;;;;;;;;;;5109268;28;20099;-69
2022/04/29 02:40:50;;;;;;;6.77;2.23;;;;;;;;;;5108585;28;20466;-70
2022/04/29 02:43:20;;;;;;;5.90;2.60;;;;;;;;;;5109127;28;20055;-71
2022/04/29 02:45:47;;;;;;;7.87;2.67;;;;;;;;;;5112021;28;20015;-71
2022/04/29 02:48:15;;;;;;;3.90;2.10;;;;;;;;;;5113150;28;20036;-67
2022/04/29 02:50:42;;;;;;;11.80;2.97;;;;;;;;;;5105204;28;20028;-70
2022/04/29 02:53:09;;;;;;;8.17;2.40;;;;;;;;;;5113865;28;20058;-72
2022/04/29 02:55:36;;;;;;;2.77;1.67;;;;;;;;;;5113580;28;20031;-72
2022/04/29 02:58:02;;;;;;;7.13;2.60;;;;;;;;;;5109982;28;20031;-71
2022/04/29 03:00:29;;;;;;;4.40;2.57;;;;;;;;;;5107935;28;20019;-74
2022/04/29 03:02:56;;;;;;;8.07;3.40;;;;;;;;;;5108518;28;20998;-69
2022/04/29 03:05:22;;;;;;;6.23;3.10;;;;;;;;;;5108779;28;20506;-71
2022/04/29 03:07:49;;;;;;;12.80;4.63;;;;;;;;;;5111294;28;20028;-73
2022/04/29 03:10:16;;;;;;;9.00;3.80;;;;;;;;;;5113559;28;20470;-73
2022/04/29 03:12:43;;;;;;;7.87;3.53;;;;;;;;;;5113224;28;20028;-73
2022/04/29 03:15:16;;;;;;;7.37;3.53;;;;;;;;;;5113491;28;20015;-76
2022/04/29 03:20:28;;;;;;;10.43;3.80;;;;;;;;;;5109915;28;20096;-73
2022/04/29 03:22:55;;;;;;;7.77;3.83;;;;;;;;;;5107904;28;20027;-73
2022/04/29 03:25:21;;;;;;;7.27;3.60;;;;;;;;;;5107716;28;20462;-73
2022/04/29 03:27:48;;;;;;;10.10;3.57;;;;;;;;;;5108320;28;20031;-73
2022/04/29 03:30:15;;;;;;;9.33;3.57;;;;;;;;;;5110582;28;20110;-73
2022/04/29 03:32:42;;;;;;;8.90;3.70;;;;;;;;;;5113074;28;20501;-73
2022/04/29 03:35:08;;;;;;;7.70;3.60;;;;;;;;;;5113223;28;20076;-73
2022/04/29 03:37:35;;;;;;;14.27;4.20;;;;;;;;;;5112776;28;20490;-75
2022/04/29 03:40:02;;;;;;;9.10;3.40;;;;;;;;;;5094887;28;20383;-72
2022/04/29 03:42:28;;;;;;;6.87;3.40;;;;;;;;;;5100378;28;20064;-73
2022/04/29 03:44:55;;;;;;;8.23;3.17;;;;;;;;;;5087667;28;20024;-73
2022/04/29 03:47:22;;;;;;;8.77;2.57;;;;;;;;;;5106711;28;20030;-73
2022/04/29 03:49:49;;;;;;;5.80;2.90;;;;;;;;;;5107877;28;20020;-73
2022/04/29 03:52:16;;;;;;;6.07;2.80;;;;;;;;;;5108216;28;20077;-73
2022/04/29 03:54:43;;;;;;;13.80;2.73;;;;;;;;;;5112784;28;20040;-73
2022/04/29 03:57:09;;;;;;;5.70;2.97;;;;;;;;;;5112627;28;20107;-76
2022/04/29 03:59:36;;;;;;;6.50;2.93;;;;;;;;;;5112287;28;20016;-74
2022/04/29 04:02:05;;;;;;;5.20;2.87;;;;;;;;;;5112537;28;20051;-73
2022/04/29 04:04:31;;;;;;;6.97;3.20;;;;;;;;;;5104953;28;20024;-73
2022/04/29 04:07:01;;;;;;;5.93;3.00;;;;;;;;;;5099366;28;20059;-73
2022/04/29 04:09:28;;;;;;;12.23;3.70;;;;;;;;;;5089635;28;20117;-73
2022/04/29 04:11:55;;;;;;;5.73;2.80;;;;;;;;;;5087077;28;20028;-74
2022/04/29 04:14:21;;;;;;;6.63;2.50;;;;;;;;;;5087615;28;20035;-73
2022/04/29 04:16:49;;;;;;;7.70;3.43;;;;;;;;;;5105406;28;20011;-71
2022/04/29 04:19:16;;;;;;;4.20;2.43;;;;;;;;;;5102510;28;20040;-73
2022/04/29 04:21:43;;;;;;;10.30;3.33;;;;;;;;;;5091436;28;20039;-70
2022/04/29 04:24:25;;;;;;;10.70;4.83;;;;;;;;;;5091873;28;20031;-70
2022/04/29 04:26:52;;;;;;;8.20;3.70;;;;;;;;;;5099968;28;20069;-68
2022/04/29 04:29:18;;;;;;;6.50;3.17;;;;;;;;;;5106940;28;20638;-68
2022/04/29 04:31:45;;;;;;;4.57;2.77;;;;;;;;;;5107124;28;20024;-70
2022/04/29 04:36:57;;;;;;;9.00;2.80;;;;;;;;;;5107753;28;20386;-71
2022/04/29 04:39:24;;;;;;;9.33;3.40;;;;;;;;;;5112104;28;20026;-69
2022/04/29 04:41:51;;;;;;;6.20;2.67;;;;;;;;;;5101657;28;20028;-69
2022/04/29 04:44:18;;;;;;;8.77;3.17;;;;;;;;;;5112216;28;20443;-71
2022/04/29 04:46:45;;;;;;;5.77;2.87;;;;;;;;;;5112069;28;20016;-71
2022/04/29 04:49:13;;;;;;;6.70;3.30;;;;;;;;;;5111771;28;20032;-69
2022/04/29 04:51:40;;;;;;;8.93;3.23;;;;;;;;;;5106208;28;20058;-68
2022/04/29 04:54:06;;;;;;;5.93;2.70;;;;;;;;;;5106528;28;20076;-70
2022/04/29 04:56:33;;;;;;;8.30;2.93;;;;;;;;;;5106469;28;20039;-70
2022/04/29 04:59:00;;;;;;;5.87;2.47;;;;;;;;;;5106751;28;20016;-69
2022/04/29 05:01:26;;;;;;;4.90;2.20;;;;;;;;;;5111119;28;20030;-68
2022/04/29 05:03:53;;;;;;;5.03;2.37;;;;;;;;;;5113629;28;20012;-70
2022/04/29 05:06:20;;;;;;;7.00;2.33;;;;;;;;;;5111602;28;20024;-71
2022/04/29 05:08:47;;;;;;;15.20;2.30;;;;;;;;;;5114790;28;20034;-72
2022/04/29 05:11:13;;;;;;;3.63;1.80;;;;;;;;;;5115471;28;20497;-73
2022/04/29 05:13:40;;;;;;;10.10;3.43;;;;;;;;;;5111288;28;20374;-70
2022/04/29 05:16:07;;;;;;;4.27;1.80;;;;;;;;;;5110995;28;20024;-71
2022/04/29 05:18:33;;;;;;;5.73;1.97;;;;;;;;;;5110856;28;20027;-71
2022/04/29 05:21:03;;;;;;;10.43;2.83;;;;;;;;;;5110961;28;20433;-69
2022/04/29 05:23:29;;;;;;;4.70;2.00;;;;;;;;;;5114383;28;20019;-69
2022/04/29 05:26:10;;;;;;;5.07;2.77;;;;;;;;;;5115574;28;20485;-66
2022/04/29 05:28:39;;;;;;;4.93;2.30;;;;;;;;;;5113980;28;20038;-72
2022/04/29 05:31:13;;;;;;;4.97;2.57;;;;;;;;;;5115394;28;20026;-76
2022/04/29 05:33:47;;;;;;;7.07;3.00;;;;;;;;;;5115639;28;20023;-70
2022/04/29 05:36:21;;;;;;;6.60;3.00;;;;;;;;;;5111140;28;20022;-70
2022/04/29 05:44:38;;;;;;;6.03;2.70;;;;;;;;;;5110377;28;20039;-71
2022/04/29 05:47:10;;;;;;;6.33;2.60;;;;;;;;;;5113726;28;20027;-70
2022/04/29 05:49:41;;;;;;;5.13;2.20;;;;;;;;;;5114806;28;20054;-70
2022/04/29 05:52:15;;;;;;;6.13;2.30;;;;;;;;;;5114688;28;20494;-70
2022/04/29 05:54:55;;;;;;;6.32;2.38;;;;;;;;;;5099190;28;20031;-70
2022/04/29 05:57:26;;;;;;;6.27;2.57;;;;;;;;;;5113489;28;20020;-70
2022/04/29 06:00:00;;;;;;;5.77;2.70;;;;;;;;;;5109528;28;20427;-70
2022/04/29 06:02:41;;;;;;;5.85;2.60;;;;;;;;;;5109614;28;20024;-70
2022/04/29 06:05:18;;;;;;;10.97;2.37;;;;;;;;;;5108855;28;20051;-70
2022/04/29 06:07:56;;;;;;;5.67;2.40;;;;;;;;;;5111169;28;20079;-70
2022/04/29 06:10:32;;;;;;;9.00;2.30;;;;;;;;;;5114030;28;20031;-70
2022/04/29 06:13:11;;;;;;;4.70;2.47;;;;;;;;;;5114607;28;20489;-70
2022/04/29 06:15:42;;;;;;;4.47;2.47;;;;;;;;;;5112033;28;20043;-70
2022/04/29 06:18:13;;;;;;;5.33;2.20;;;;;;;;;;5114652;28;20485;-70
2022/04/29 06:20:48;;;;;;;7.90;2.97;;;;;;;;;;5110703;28;20038;-70
2022/04/29 06:23:19;;;;;;;8.73;2.28;;;;;;;;;;5109536;28;20076;-70
2022/04/29 06:25:53;;;;;;;4.67;2.20;;;;;;;;;;5109602;28;20026;-70
2022/04/29 06:28:24;;;;;;;4.10;2.10;;;;;;;;;;5109216;28;20469;-70
2022/04/29 06:30:58;;;;;;;6.10;2.00;;;;;;;;;;5111932;28;20019;-71
2022/04/29 06:33:30;;;;;;;6.53;2.40;;;;;;;;;;5113855;28;20019;-70
2022/04/29 06:36:01;;;;;;;4.90;2.30;;;;;;;;;;5114123;28;20558;-70
2022/04/29 06:38:35;;;;;;;4.70;2.20;;;;;;;;;;5114539;28;20046;-70
2022/04/29 06:41:06;;;;;;;4.27;2.30;;;;;;;;;;5114025;28;20019;-70
2022/04/29 06:43:43;;;;;;;5.70;2.60;;;;;;;;;;5110867;28;20020;-69
2022/04/29 06:46:17;;;;;;;5.10;2.43;;;;;;;;;;5108976;28;20034;-70
2022/04/29 06:48:52;;;;;;;5.93;2.73;;;;;;;;;;5109054;28;20391;-70
2022/04/29 06:51:27;;;;;;;4.60;2.73;;;;;;;;;;5108720;28;20072;-70
2022/04/29 06:54:01;;;;;;;5.60;2.40;;;;;;;;;;5112465;28;20028;-70
2022/04/29 06:56:38;;;;;;;4.97;2.38;;;;;;;;;;5113387;28;20024;-70
2022/04/29 06:59:09;;;;;;;6.70;2.83;;;;;;;;;;5113430;28;20095;-70
2022/04/29 07:01:40;;;;;;;8.37;3.00;;;;;;;;;;5113013;28;20034;-70
2022/04/29 07:04:19;;;;;;;6.77;2.40;;;;;;;;;;5113755;28;20370;-70
2022/04/29 07:06:54;;;;;;;5.93;2.77;;;;;;;;;;5107753;28;20027;-70
2022/04/29 07:09:21;;;;;;;5.40;2.67;;;;;;;;;;5108598;28;20501;-70
2022/04/29 07:11:59;;;;;;;8.20;2.40;;;;;;;;;;5108267;28;20410;-70
2022/04/29 07:14:33;;;;;;;4.17;2.40;;;;;;;;;;5108559;28;20011;-70
2022/04/29 07:17:04;;;;;;;7.38;2.35;;;;;;;;;;5113113;28;20364;-70
2022/04/29 07:19:41;;;;;;;5.07;2.30;;;;;;;;;;5102171;28;20595;-70
2022/04/29 07:22:16;;;;;;;5.77;2.50;;;;;;;;;;5113761;28;20035;-70
2022/04/29 07:24:47;;;;;;;5.00;2.70;;;;;;;;;;5113250;28;20030;-70
2022/04/29 07:27:21;;;;;;;5.27;2.50;;;;;;;;;;5112251;28;20027;-70
2022/04/29 07:29:53;;;;;;;3.93;2.20;;;;;;;;;;5108077;28;20169;-70
2022/04/29 07:32:25;;;;;;;5.80;2.63;;;;;;;;;;5103817;28;20272;-70
2022/04/29 07:43:25;;;;;;;6.07;2.77;;;;;;;;;;5112554;28;20077;-70
2022/04/29 07:45:58;;;;;;;6.05;2.83;;;;;;;;;;5112854;28;20424;-70
2022/04/29 07:48:30;;;;;;;6.37;2.40;;;;;;;;;;5112128;28;20434;-70
2022/04/29 07:51:01;;;;;;;4.57;2.70;;;;;;;;;;5109603;28;20028;-70
2022/04/29 07:53:38;;;;;;;6.00;2.67;;;;;;;;;;5108074;28;20045;-70
2022/04/29 07:56:22;;;;;;;5.60;2.60;;;;;;;;;;5107602;28;20031;-70
2022/04/29 07:58:55;;;;;;;4.20;2.27;;;;;;;;;;5106685;28;20031;-70
2022/04/29 08:01:27;;;;;;;8.70;3.80;;;;;;;;;;5111032;28;20027;-70
2022/04/29 08:04:07;;;;;;;11.77;3.20;;;;;;;;;;5112345;28;20019;-70
2022/04/29 08:06:39;;;;;;;5.33;3.10;;;;;;;;;;5112313;28;20019;-70
2022/04/29 08:09:10;;;;;;;7.20;2.27;;;;;;;;;;5111982;28;20119;-70
2022/04/29 08:11:42;;;;;;;3.63;2.10;;;;;;;;;;5112233;28;20026;-70
2022/04/29 08:14:12;;;;;;;12.93;2.20;;;;;;;;;;5107766;28;20046;-70
2022/04/29 08:16:44;;;;;;;5.20;2.10;;;;;;;;;;5107522;28;20028;-70
2022/04/29 08:19:24;;;;;;;4.57;2.40;;;;;;;;;;5107101;28;20022;-70
2022/04/29 08:21:55;;;;;;;5.53;2.23;;;;;;;;;;5107409;28;20038;-70
2022/04/29 08:24:29;;;;;;;4.77;2.40;;;;;;;;;;5111187;28;20415;-70
2022/04/29 08:27:00;;;;;;;3.63;2.08;;;;;;;;;;5112473;28;20020;-70
2022/04/29 08:29:44;;;;;;;3.30;1.90;;;;;;;;;;5112012;28;20024;-70
2022/04/29 08:32:16;;;;;;;3.78;2.20;;;;;;;;;;5112298;28;20072;-70
2022/04/29 08:34:56;;;;;;;4.07;2.20;;;;;;;;;;5111681;28;20023;-70
2022/04/29 08:37:27;;;;;;;6.13;2.37;;;;;;;;;;5107378;28;20230;-70
2022/04/29 08:40:02;;;;;;;5.07;2.37;;;;;;;;;;5110967;28;20374;-70
2022/04/29 08:42:47;;;;;;;7.28;2.92;;;;;;;;;;5111429;28;20021;-70
2022/04/29 08:45:19;;;;;;;4.50;1.90;;;;;;;;;;5112227;28;20024;-70
2022/04/29 08:47:59;;;;;;;3.77;2.23;;;;;;;;;;5115556;28;20047;-70
2022/04/29 08:50:30;;;;;;;6.10;2.40;;;;;;;;;;5115860;28;20023;-70
2022/04/29 08:52:57;;;;;;;7.43;2.80;;;;;;;;;;5116388;28;20459;-70
2022/04/29 08:58:51;;;;;;;;;;;;;;;;;;5114709;28;20501;-70
2022/04/29 09:01:17;;;;;;;6.70;2.40;;;;;;;;;;5102270;28;19911;-69
2022/04/29 09:03:44;;;;;;;3.78;2.05;;;;;;;;;;5110694;28;20443;-70
2022/04/29 09:06:12;;;;;;;4.57;2.00;;;;;;;;;;5111080;28;20035;-70
2022/04/29 09:08:42;;;;;;;3.40;1.70;;;;;;;;;;5113517;28;20056;-70
2022/04/29 09:11:09;;;;;;;4.13;2.20;;;;;;;;;;5116013;28;20145;-70
2022/04/29 09:13:40;;;;;;;4.93;2.30;;;;;;;;;;5115723;28;20023;-70
2022/04/29 09:16:13;;;;;;;6.00;2.90;;;;;;;;;;5114912;28;20035;-70
2022/04/29 09:18:47;;;;;;;3.70;1.97;;;;;;;;;;5115897;28;20016;-70
2022/04/29 09:21:15;;;;;;;4.90;2.50;;;;;;;;;;5112726;28;20375;-70
2022/04/29 09:23:43;;;;;;;4.03;1.97;;;;;;;;;;5110972;28;20076;-70
2022/04/29 09:26:30;;;;;;;3.80;1.83;;;;;;;;;;5110051;28;20019;-70
2022/04/29 09:29:10;;;;;;;3.83;2.00;;;;;;;;;;5110376;28;20429;-70
2022/04/29 09:31:56;;;;;;;3.63;1.90;;;;;;;;;;5113767;28;20023;-70
2022/04/29 09:34:23;;;;;;;6.10;3.20;;;;;;;;;;5115348;28;20474;-70
2022/04/29 09:36:50;;;;;;;6.00;2.00;;;;;;;;;;5114954;28;20106;-70
2022/04/29 09:39:27;;;;;;;3.13;1.93;;;;;;;;;;5114988;28;20027;-70
2022/04/29 09:41:54;;;;;;;4.77;2.20;;;;;;;;;;5115185;28;20413;-70
2022/04/29 09:44:31;;;;;;;4.77;1.90;;;;;;;;;;5110631;28;20053;-70
2022/04/29 09:47:21;;;;;;;7.67;1.90;;;;;;;;;;5110690;28;20024;-70
2022/04/29 09:49:55;;;;;;;4.60;2.10;;;;;;;;;;5108721;28;20108;-70
2022/04/29 09:52:23;;;;;;;5.78;2.33;;;;;;;;;;5109839;28;20066;-70
2022/04/29 09:54:50;;;;;;;5.80;2.60;;;;;;;;;;5114893;28;20363;-70
2022/04/29 09:57:18;;;;;;;6.00;2.00;;;;;;;;;;5114911;28;20024;-70
2022/04/29 09:59:46;;;;;;;5.37;2.27;;;;;;;;;;5114781;28;20027;-69
2022/04/29 10:02:13;;;;;;;3.43;2.00;;;;;;;;;;5114681;28;20067;-70
2022/04/29 10:04:41;;;;;;;7.50;1.80;;;;;;;;;;5114492;28;20031;-70
2022/04/29 10:07:12;;;;;;;5.53;2.30;;;;;;;;;;5110085;28;20031;-69
2022/04/29 10:09:40;;;;;;;3.00;1.80;;;;;;;;;;5109685;28;20036;-70
2022/04/29 10:12:14;;;;;;;5.47;1.97;;;;;;;;;;5109865;28;20118;-69
2022/04/29 10:14:42;;;;;;;4.07;1.67;;;;;;;;;;5108838;28;20027;-69
2022/04/29 10:22:43;;;;;;;4.73;2.10;;;;;;;;;;5114739;28;20512;-69
2022/04/29 10:25:11;;;;;;;7.03;2.83;;;;;;;;;;5114440;28;20030;-70
2022/04/29 10:27:39;;;;;;;5.23;2.00;;;;;;;;;;5112567;28;20023;-70
2022/04/29 10:30:07;;;;;;;5.63;2.07;;;;;;;;;;5109344;28;20051;-70
2022/04/29 10:32:53;;;;;;;4.80;2.07;;;;;;;;;;5109660;28;20031;-70
2022/04/29 10:35:38;;;;;;;4.27;2.00;;;;;;;;;;5057736;28;20164;-69
2022/04/29 10:38:23;;;;;;;3.95;2.05;;;;;;;;;;5109686;28;20024;-70
2022/04/29 10:41:10;;;;;;;6.40;2.20;;;;;;;;;;5114401;28;20024;-69
2022/04/29 10:43:45;;;;;;;3.90;2.27;;;;;;;;;;5113881;28;20497;-69
2022/04/29 10:46:13;;;;;;;4.57;2.33;;;;;;;;;;5113600;28;20016;-69
2022/04/29 10:48:40;;;;;;;7.80;1.83;;;;;;;;;;5114306;28;20035;-69
2022/04/29 10:51:10;;;;;;;4.50;1.90;;;;;;;;;;5111142;28;20034;-70
2022/04/29 10:53:41;;;;;;;4.33;2.20;;;;;;;;;;5108551;28;20547;-69
2022/04/29 10:56:30;;;;;;;5.10;1.87;;;;;;;;;;5108455;28;20425;-70
2022/04/29 10:59:09;;;;;;;3.20;1.80;;;;;;;;;;5095924;28;20064;-69
2022/04/29 11:01:37;;;;;;;2.77;1.63;;;;;;;;;;5110808;28;20063;-69
2022/04/29 11:04:08;;;;;;;4.73;1.93;;;;;;;;;;5113888;28;20526;-69
2022/04/29 11:06:45;;;;;;;3.50;1.77;;;;;;;;;;5113102;28;20027;-69
2022/04/29 11:09:30;;;;;;;4.37;2.33;;;;;;;;;;5113544;28;20096;-69
2022/04/29 11:11:58;;;;;;;4.43;2.20;;;;;;;;;;5093544;28;20032;-70
2022/04/29 11:14:25;;;;;;;4.37;2.23;;;;;;;;;;5101925;28;20026;-70
2022/04/29 11:16:53;;;;;;;6.60;2.27;;;;;;;;;;5108154;28;20028;-69
2022/04/29 11:19:29;;;;;;;6.20;3.40;;;;;;;;;;5108215;28;20050;-69
2022/04/29 11:24:45;;;;;;;4.73;2.10;;;;;;;;;;5099742;28;20039;-69
2022/04/29 11:27:12;;;;;;;3.77;2.00;;;;;;;;;;5112903;28;20020;-69
2022/04/29 11:29:43;;;;;;;5.80;2.20;;;;;;;;;;5113183;28;20071;-69
2022/04/29 11:32:10;;;;;;;3.60;1.90;;;;;;;;;;5113076;28;20394;-70
2022/04/29 11:34:51;;;;;;;4.50;2.10;;;;;;;;;;5112747;28;20110;-69
2022/04/29 11:37:27;;;;;;;2.70;1.70;;;;;;;;;;5107999;28;20096;-69
2022/04/29 11:39:57;;;;;;;3.63;2.23;;;;;;;;;;5108282;28;20027;-69
2022/04/29 11:42:23;;;;;;;5.10;2.43;;;;;;;;;;5108103;28;20473;-69
2022/04/29 11:44:50;;;;;;;3.70;2.00;;;;;;;;;;5107836;28;20270;-69
2022/04/29 11:47:18;;;;;;;5.43;2.00;;;;;;;;;;5112142;28;20032;-69
2022/04/29 11:49:44;;;;;;;6.23;2.13;;;;;;;;;;5112740;28;20069;-69
2022/04/29 11:52:24;;;;;;;5.97;1.60;;;;;;;;;;5112547;28;20394;-69
2022/04/29 11:54:57;;;;;;;3.50;2.27;;;;;;;;;;5112490;28;20054;-69
2022/04/29 11:57:24;;;;;;;6.30;2.97;;;;;;;;;;5112873;28;20252;-69
2022/04/29 11:59:51;;;;;;;4.70;2.10;;;;;;;;;;5107687;28;20276;-69
2022/04/29 12:02:19;;;;;;;7.23;2.30;;;;;;;;;;5107640;28;20058;-69
2022/04/29 12:04:57;;;;;;;7.47;2.40;;;;;;;;;;5107709;28;20024;-69
2022/04/29 12:07:25;;;;;;;5.27;2.23;;;;;;;;;;5107225;28;20268;-69
2022/04/29 12:09:52;;;;;;;7.53;2.20;;;;;;;;;;5112016;28;20283;-69
2022/04/29 12:12:26;;;;;;;5.73;2.30;;;;;;;;;;5112044;28;20325;-69
2022/04/29 12:14:53;;;;;;;7.63;2.40;;;;;;;;;;5112300;28;20354;-69
2022/04/29 12:17:21;;;;;;;4.57;2.63;;;;;;;;;;5112287;28;20299;-69
2022/04/29 12:19:56;;;;;;;10.33;2.90;;;;;;;;;;5112443;28;20672;-69
2022/04/29 12:22:31;;;;;;;4.67;2.60;;;;;;;;;;5107699;28;20043;-70
2022/04/29 12:24:58;;;;;;;6.10;3.13;;;;;;;;;;5092231;28;20274;-69
2022/04/29 12:27:29;;;;;;;7.83;2.97;;;;;;;;;;5107032;28;20150;-69
2022/04/29 12:35:30;;;;;;;5.87;3.20;;;;;;;;;;5102451;28;20042;-69
2022/04/29 12:37:57;;;;;;;5.70;2.93;;;;;;;;;;5111729;28;20264;-69
2022/04/29 12:40:27;;;;;;;7.63;3.87;;;;;;;;;;5111661;28;20782;-69
2022/04/29 12:42:54;;;;;;;6.80;3.00;;;;;;;;;;5111308;28;20840;-69
2022/04/29 12:45:27;;;;;;;6.33;3.27;;;;;;;;;;5107113;28;20354;-69
2022/04/29 12:48:04;;;;;;;6.83;3.30;;;;;;;;;;5107318;28;20596;-69
2022/04/29 12:50:41;;;;;;;8.67;3.53;;;;;;;;;;5107085;28;20024;-69
2022/04/29 12:53:12;;;;;;;6.60;3.30;;;;;;;;;;5108746;28;20020;-69
2022/04/29 12:55:39;;;;;;;9.53;3.40;;;;;;;;;;5111698;28;20619;-69
2022/04/29 12:58:16;;;;;;;9.17;4.10;;;;;;;;;;5111826;28;20765;-69
2022/04/29 13:00:50;;;;;;;7.90;3.40;;;;;;;;;;5111995;28;20023;-69
2022/04/29 13:03:22;;;;;;;7.85;3.60;;;;;;;;;;5111704;28;20379;-69
2022/04/29 13:05:48;;;;;;;11.53;4.23;;;;;;;;;;5109652;28;20019;-69
2022/04/29 13:08:15;;;;;;;9.17;4.10;;;;;;;;;;5106063;28;20175;-69
2022/04/29 13:10:52;;;;;;;20.03;8.67;;;;;;;;;;5106726;28;20030;-69
2022/04/29 13:13:20;;;;;;;27.23;12.20;;;;;;;;;;5106757;28;20028;-69
2022/04/29 13:15:47;;;;;;;27.97;10.83;;;;;;;;;;5108043;28;20024;-69
2022/04/29 13:18:15;;;;;;;28.10;12.50;;;;;;;;;;5111479;28;20020;-69
2022/04/29 13:20:42;;;;;;;32.27;11.90;;;;;;;;;;5111546;28;20024;-68
2022/04/29 13:23:11;;;;;;;21.60;11.23;;;;;;;;;;5110188;28;20061;-70
2022/04/29 13:25:39;;;;;;;31.40;10.93;;;;;;;;;;5112864;28;20556;-70
2022/04/29 13:28:06;;;;;;;24.10;9.70;;;;;;;;;;5111335;28;20036;-70
2022/04/29 13:30:32;;;;;;;24.60;9.23;;;;;;;;;;5108675;28;20382;-70
2022/04/29 13:32:59;;;;;;;22.33;9.03;;;;;;;;;;5108540;28;20045;-70
2022/04/29 13:35:26;;;;;;;17.27;7.67;;;;;;;;;;5107554;28;20466;-70
2022/04/29 13:37:52;;;;;;;21.03;8.37;;;;;;;;;;5108651;28;20024;-70
2022/04/29 13:40:19;;;;;;;24.57;8.77;;;;;;;;;;5113990;28;20023;-70
2022/04/29 13:42:46;;;;;;;18.20;7.87;;;;;;;;;;5115423;28;20094;-70
2022/04/29 13:45:13;;;;;;;15.30;8.83;;;;;;;;;;5115002;28;20028;-70
2022/04/29 13:47:40;;;;;;;20.03;7.20;;;;;;;;;;5115079;28;20016;-70
2022/04/29 13:50:08;;;;;;;13.80;6.13;;;;;;;;;;5113890;28;20032;-70
2022/04/29 13:55:19;;;;;;;13.48;5.30;;;;;;;;;;5109568;28;20391;-70
2022/04/29 13:57:46;;;;;;;11.00;4.73;;;;;;;;;;5109217;28;20028;-70
2022/04/29 14:00:13;;;;;;;12.47;6.07;;;;;;;;;;5110034;28;20030;-70
2022/04/29 14:02:41;;;;;;;15.97;5.97;;;;;;;;;;5114636;28;20019;-70
2022/04/29 14:05:09;;;;;;;11.77;6.33;;;;;;;;;;5115058;28;20019;-70
2022/04/29 14:07:37;;;;;;;17.00;6.13;;;;;;;;;;5114970;28;20020;-70
2022/04/29 14:10:04;;;;;;;10.30;5.33;;;;;;;;;;5114624;28;20024;-70
2022/04/29 14:12:30;;;;;;;8.63;4.83;;;;;;;;;;5113881;28;20473;-70
2022/04/29 14:14:58;;;;;;;10.77;4.83;;;;;;;;;;5108966;28;20035;-70
2022/04/29 14:17:25;;;;;;;9.43;4.27;;;;;;;;;;5109455;28;20016;-70
2022/04/29 14:19:52;;;;;;;7.33;3.63;;;;;;;;;;5109199;28;20027;-70
2022/04/29 14:22:19;;;;;;;8.97;4.07;;;;;;;;;;5108757;28;20052;-70
2022/04/29 14:24:46;;;;;;;14.07;3.37;;;;;;;;;;5114379;28;20020;-70
2022/04/29 14:27:13;;;;;;;10.47;4.30;;;;;;;;;;5114003;28;20023;-70
2022/04/29 14:29:41;;;;;;;8.13;3.30;;;;;;;;;;5114145;28;20352;-70
2022/04/29 14:32:11;;;;;;;8.40;3.60;;;;;;;;;;5114178;28;20032;-70
2022/04/29 14:34:38;;;;;;;7.57;3.93;;;;;;;;;;5114029;28;20020;-69
2022/04/29 14:37:06;;;;;;;10.20;3.83;;;;;;;;;;5107831;28;20502;-70
2022/04/29 14:39:32;;;;;;;8.37;3.57;;;;;;;;;;5108665;28;20471;-70
2022/04/29 14:41:59;;;;;;;6.13;3.17;;;;;;;;;;5108381;28;20023;-70
2022/04/29 14:44:27;;;;;;;9.10;3.77;;;;;;;;;;5108079;28;20031;-70
2022/04/29 14:46:54;;;;;;;10.63;3.53;;;;;;;;;;5113330;28;20023;-70
2022/04/29 14:49:22;;;;;;;12.83;4.00;;;;;;;;;;5113856;28;20110;-70
2022/04/29 14:51:49;;;;;;;11.93;3.53;;;;;;;;;;5113619;28;20027;-70
2022/04/29 14:54:16;;;;;;;9.73;3.67;;;;;;;;;;5113777;28;20428;-70
2022/04/29 14:56:43;;;;;;;7.40;2.77;;;;;;;;;;5113626;28;20051;-70
2022/04/29 14:59:12;;;;;;;5.90;3.40;;;;;;;;;;5108780;28;20114;-70
2022/04/29 15:01:40;;;;;;;7.27;3.10;;;;;;;;;;5107917;28;20119;-70
2022/04/29 15:04:07;;;;;;;6.57;3.67;;;;;;;;;;5108248;28;20114;-70
2022/04/29 15:06:34;;;;;;;9.87;3.67;;;;;;;;;;5107841;28;20030;-70
2022/04/29 15:17:20;;;;;;;5.47;3.40;;;;;;;;;;5113609;28;20115;-70
2022/04/29 15:19:47;;;;;;;12.07;4.17;;;;;;;;;;5112134;28;20023;-70
2022/04/29 15:22:14;;;;;;;7.47;3.90;;;;;;;;;;5091726;28;20028;-70
2022/04/29 15:24:41;;;;;;;6.37;3.77;;;;;;;;;;5093894;28;20032;-70
2022/04/29 15:27:08;;;;;;;10.43;4.10;;;;;;;;;;5107758;28;20028;-70
2022/04/29 15:29:35;;;;;;;9.40;4.10;;;;;;;;;;5107382;28;20058;-70
2022/04/29 15:32:02;;;;;;;10.30;3.93;;;;;;;;;;5113028;28;20069;-70
2022/04/29 15:34:31;;;;;;;4.78;3.30;;;;;;;;;;5112912;28;20057;-70
2022/04/29 15:37:00;;;;;;;13.32;4.05;;;;;;;;;;5112867;28;20489;-70
2022/04/29 15:39:29;;;;;;;8.45;4.10;;;;;;;;;;5112260;28;20023;-70
2022/04/29 15:41:59;;;;;;;9.50;4.25;;;;;;;;;;5112681;28;20049;-70
2022/04/29 15:44:26;;;;;;;7.40;4.63;;;;;;;;;;5107234;28;20030;-70